createdAt,value
2019-02-12T00:00:27.222Z,1.80
2019-02-12T00:02:58.146Z,1.70
2019-02-12T00:05:29.345Z,1.50
2019-02-12T00:08:00.564Z,1.70
2019-02-12T00:10:31.499Z,1.87
2019-02-12T00:13:02.507Z,1.80
2019-02-12T00:15:33.535Z,1.60
2019-02-12T00:18:04.458Z,2.03
2019-02-12T00:20:35.376Z,1.80
2019-02-12T00:23:06.369Z,1.10
2019-02-12T00:25:37.248Z,1.13
2019-02-12T00:28:08.226Z,1.50
2019-02-12T00:30:39.150Z,1.53
2019-02-12T00:33:10.067Z,1.60
2019-02-12T00:35:41.087Z,1.60
2019-02-12T00:38:12.024Z,1.20
2019-02-12T00:40:42.987Z,1.40
2019-02-12T00:43:13.863Z,1.77
2019-02-12T00:45:44.774Z,1.20
2019-02-12T00:48:15.696Z,2.37
2019-02-12T00:50:46.919Z,2.40
2019-02-12T00:53:17.885Z,2.23
2019-02-12T00:55:49.099Z,1.27
2019-02-12T00:58:20.021Z,1.27
2019-02-12T01:00:51.071Z,1.57
2019-02-12T01:03:22.309Z,1.70
2019-02-12T01:05:53.330Z,1.83
2019-02-12T01:08:24.281Z,2.60
2019-02-12T01:10:55.175Z,1.80
2019-02-12T01:13:26.382Z,2.37
2019-02-12T01:15:57.283Z,1.90
2019-02-12T01:18:28.248Z,1.57
2019-02-12T01:20:59.228Z,2.07
2019-02-12T01:23:30.237Z,1.30
2019-02-12T01:26:01.566Z,1.93
2019-02-12T01:28:32.545Z,2.20
2019-02-12T01:31:03.482Z,1.73
2019-02-12T01:33:34.364Z,1.30
2019-02-12T01:36:05.273Z,1.53
2019-02-12T01:38:36.317Z,1.40
2019-02-12T01:41:07.286Z,1.60
2019-02-12T01:43:38.498Z,1.40
2019-02-12T01:46:09.425Z,2.00
2019-02-12T01:48:40.440Z,1.77
2019-02-12T01:51:11.418Z,1.30
2019-02-12T01:53:42.325Z,2.57
2019-02-12T01:56:13.278Z,1.30
2019-02-12T01:58:44.286Z,1.80
2019-02-12T02:01:15.201Z,1.40
2019-02-12T02:03:46.122Z,1.87
2019-02-12T02:06:16.998Z,2.40
2019-02-12T02:08:48.001Z,1.97
2019-02-12T02:11:18.955Z,1.57
2019-02-12T02:13:49.857Z,1.83
2019-02-12T02:16:20.784Z,1.87
2019-02-12T02:18:51.679Z,2.00
2019-02-12T02:21:22.680Z,2.13
2019-02-12T02:23:53.582Z,1.80
2019-02-12T02:26:24.798Z,1.60
2019-02-12T02:28:55.726Z,2.23
2019-02-12T02:31:26.641Z,2.47
2019-02-12T02:33:57.590Z,2.10
2019-02-12T02:36:28.473Z,2.37
2019-02-12T02:38:59.754Z,1.73
2019-02-12T02:41:30.818Z,1.80
2019-02-12T02:44:01.735Z,1.87
2019-02-12T02:46:32.718Z,1.83
2019-02-12T02:49:03.623Z,1.60
2019-02-12T02:51:34.657Z,1.73
2019-02-12T02:54:05.583Z,1.40
2019-02-12T02:56:36.845Z,2.00
2019-02-12T02:59:08.068Z,2.40
2019-02-12T03:01:39.262Z,2.33
2019-02-12T03:04:10.174Z,1.83
2019-02-12T03:06:41.215Z,2.20
2019-02-12T03:09:12.153Z,2.63
2019-02-12T03:11:43.103Z,1.80
2019-02-12T03:14:14.139Z,2.13
2019-02-12T03:16:45.056Z,2.67
2019-02-12T03:19:15.992Z,1.50
2019-02-12T03:21:47.015Z,1.60
2019-02-12T03:24:18.007Z,2.73
2019-02-12T03:26:49.183Z,1.63
2019-02-12T03:29:20.156Z,1.67
2019-02-12T03:31:51.246Z,2.87
2019-02-12T03:34:22.125Z,1.90
2019-02-12T03:36:53.087Z,2.03
2019-02-12T03:39:24.039Z,2.50
2019-02-12T03:41:54.916Z,2.20
2019-02-12T03:44:25.837Z,2.10
2019-02-12T03:46:56.793Z,2.10
2019-02-12T03:49:27.728Z,2.10
2019-02-12T03:51:58.651Z,3.00
2019-02-12T03:54:29.555Z,2.00
2019-02-12T03:57:00.564Z,2.70
2019-02-12T03:59:31.451Z,2.40
2019-02-12T04:02:02.469Z,1.97
2019-02-12T04:04:33.454Z,2.10
2019-02-12T04:07:04.423Z,1.80
2019-02-12T04:09:35.400Z,2.10
2019-02-12T04:12:06.387Z,1.90
2019-02-12T04:14:37.332Z,2.00
2019-02-12T04:17:08.248Z,1.50
2019-02-12T04:19:39.140Z,1.77
2019-02-12T04:22:10.183Z,2.40
2019-02-12T04:24:41.091Z,2.60
2019-02-12T04:27:12.010Z,1.60
2019-02-12T04:29:43.018Z,2.83
2019-02-12T04:32:13.974Z,2.40
2019-02-12T04:34:44.977Z,2.07
2019-02-12T04:37:16.156Z,1.93
2019-02-12T04:39:47.098Z,1.77
2019-02-12T04:42:18.347Z,4.17
2019-02-12T04:44:49.258Z,3.47
2019-02-12T04:47:20.148Z,2.43
2019-02-12T04:49:51.152Z,2.33
2019-02-12T04:52:31.604Z,1.90
2019-02-12T04:54:54.672Z,1.87
2019-02-12T04:57:25.593Z,1.70
2019-02-12T04:59:56.777Z,2.43
2019-02-12T05:02:28.843Z,1.83
2019-02-12T05:04:59.731Z,1.70
2019-02-12T05:07:30.653Z,2.30
2019-02-12T05:10:02.078Z,2.40
2019-02-12T05:12:33.136Z,1.80
2019-02-12T05:15:04.080Z,3.10
2019-02-12T05:17:34.946Z,2.20
2019-02-12T05:20:06.766Z,1.73
2019-02-12T05:22:43.690Z,2.40
2019-02-12T05:25:10.584Z,1.80
2019-02-12T05:27:41.911Z,1.73
2019-02-12T05:30:13.265Z,1.70
2019-02-12T05:32:44.166Z,3.43
2019-02-12T05:35:15.079Z,2.10
2019-02-12T05:37:46.535Z,1.70
2019-02-12T05:40:17.755Z,1.50
2019-02-12T05:42:48.663Z,1.93
2019-02-12T05:45:20.760Z,1.83
2019-02-12T05:47:51.681Z,3.47
2019-02-12T05:50:22.853Z,2.20
2019-02-12T05:52:55.119Z,1.73
2019-02-12T05:55:26.505Z,1.90
2019-02-12T05:57:57.761Z,2.40
2019-02-12T06:00:30.962Z,1.80
2019-02-12T06:03:01.843Z,2.03
2019-02-12T06:05:32.858Z,2.27
2019-02-12T06:08:04.113Z,1.57
2019-02-12T06:10:35.086Z,1.73
2019-02-12T06:13:06.121Z,1.70
2019-02-12T06:15:37.037Z,1.90
2019-02-12T06:18:08.031Z,1.53
2019-02-12T06:20:38.973Z,1.53
2019-02-12T06:23:09.844Z,2.10
2019-02-12T06:25:40.770Z,1.90
2019-02-12T06:28:12.053Z,1.90
2019-02-12T06:30:44.020Z,1.97
2019-02-12T06:33:15.077Z,1.87
2019-02-12T06:35:46.332Z,1.90
2019-02-12T06:38:17.296Z,1.83
2019-02-12T06:40:48.189Z,1.73
2019-02-12T06:43:19.144Z,2.50
2019-02-12T06:45:50.071Z,1.93
2019-02-12T06:48:20.983Z,1.67
2019-02-12T06:50:51.871Z,1.90
2019-02-12T06:53:22.833Z,2.07
2019-02-12T06:55:53.806Z,2.07
2019-02-12T06:58:24.692Z,2.30
2019-02-12T07:00:55.635Z,2.40
2019-02-12T07:03:48.914Z,2.20
2019-02-12T07:07:12.428Z,2.30
2019-02-12T07:10:00.993Z,2.30
2019-02-12T07:13:35.148Z,2.60
2019-02-12T07:16:52.818Z,3.03
2019-02-12T07:19:41.394Z,3.77
2019-02-12T07:23:03.887Z,2.80
2019-02-12T07:26:20.454Z,2.87
2019-02-12T07:29:27.674Z,3.33
2019-02-12T07:32:43.640Z,2.87
2019-02-12T07:36:14.203Z,3.07
2019-02-12T07:39:24.863Z,3.10
2019-02-12T07:42:26.956Z,3.03
2019-02-12T07:45:35.679Z,2.83
2019-02-12T07:49:01.366Z,2.77
2019-02-12T07:52:30.203Z,2.20
2019-02-12T07:56:05.480Z,2.67
2019-02-12T07:59:46.950Z,4.17
2019-02-12T08:03:03.737Z,2.67
2019-02-12T08:07:01.444Z,2.33
2019-02-12T08:10:24.057Z,2.33
2019-02-12T08:13:46.893Z,2.30
2019-02-12T08:17:14.624Z,2.07
2019-02-12T08:20:44.052Z,2.60
2019-02-12T08:24:01.146Z,2.20
2019-02-12T08:27:51.540Z,1.93
2019-02-12T08:31:26.819Z,2.70
2019-02-12T08:34:58.975Z,2.80
2019-02-12T08:38:29.210Z,2.87
2019-02-12T08:41:53.956Z,4.10
2019-02-12T08:45:29.428Z,4.63
2019-02-12T08:48:41.527Z,1.90
2019-02-12T08:52:02.035Z,4.50
2019-02-12T08:55:19.109Z,4.87
2019-02-12T08:58:25.235Z,4.30
2019-02-12T09:01:41.156Z,2.70
2019-02-12T09:05:04.455Z,8.53
2019-02-12T09:08:08.745Z,4.03
2019-02-12T09:11:30.494Z,3.87
2019-02-12T09:14:31.246Z,2.97
2019-02-12T09:17:59.063Z,5.33
2019-02-12T09:21:24.378Z,2.83
2019-02-12T09:24:20.820Z,3.20
2019-02-12T09:27:15.052Z,2.87
2019-02-12T09:31:00.021Z,2.63
2019-02-12T09:34:15.454Z,2.57
2019-02-12T09:37:24.280Z,3.50
2019-02-12T09:40:49.598Z,2.20
2019-02-12T09:44:40.087Z,2.20
2019-02-12T09:47:53.135Z,2.63
2019-02-12T09:51:12.920Z,2.50
2019-02-12T09:54:39.811Z,2.13
2019-02-12T09:57:58.012Z,2.23
2019-02-12T10:00:57.036Z,2.57
2019-02-12T10:04:21.607Z,1.87
2019-02-12T10:07:28.741Z,2.17
2019-02-12T10:10:57.735Z,2.27
2019-02-12T10:14:15.794Z,2.40
2019-02-12T10:17:21.479Z,2.80
2019-02-12T10:20:19.425Z,2.23
2019-02-12T10:23:22.331Z,1.93
2019-02-12T10:26:10.899Z,2.47
2019-02-12T10:29:31.887Z,2.23
2019-02-12T10:32:08.414Z,2.20
2019-02-12T10:34:32.821Z,2.57
2019-02-12T10:37:04.023Z,2.13
2019-02-12T10:39:35.059Z,2.23
2019-02-12T10:42:06.039Z,2.20
2019-02-12T10:44:37.329Z,1.93
2019-02-12T10:47:08.486Z,2.00
2019-02-12T10:49:39.406Z,2.07
2019-02-12T10:52:10.325Z,2.10
2019-02-12T10:54:41.345Z,2.17
2019-02-12T10:57:12.219Z,2.33
2019-02-12T10:59:43.097Z,2.83
2019-02-12T11:02:14.352Z,1.80
2019-02-12T11:04:45.568Z,1.97
2019-02-12T11:07:16.530Z,1.97
2019-02-12T11:09:47.495Z,1.97
2019-02-12T11:12:18.749Z,2.27
2019-02-12T11:14:49.674Z,2.63
2019-02-12T11:17:21.207Z,2.30
2019-02-12T11:19:52.385Z,2.20
2019-02-12T11:22:23.416Z,2.73
2019-02-12T11:24:54.355Z,1.80
2019-02-12T11:27:25.249Z,2.03
2019-02-12T11:29:56.233Z,2.33
2019-02-12T11:32:27.480Z,2.33
2019-02-12T11:34:58.802Z,2.37
2019-02-12T11:37:29.724Z,1.80
2019-02-12T11:40:00.757Z,1.97
2019-02-12T11:42:31.943Z,1.90
2019-02-12T11:45:02.913Z,1.80
2019-02-12T11:47:33.873Z,1.80
2019-02-12T11:50:04.898Z,1.50
2019-02-12T11:52:35.994Z,1.50
2019-02-12T11:55:07.586Z,1.77
2019-02-12T11:57:38.542Z,1.63
2019-02-12T12:00:12.870Z,1.57
2019-02-12T12:02:43.789Z,1.63
2019-02-12T12:05:14.774Z,1.57
2019-02-12T12:07:45.822Z,2.17
2019-02-12T12:10:16.803Z,1.70
2019-02-12T12:12:48.047Z,2.13
2019-02-12T12:15:18.987Z,1.73
2019-02-12T12:17:49.895Z,1.97
2019-02-12T12:20:20.773Z,1.53
2019-02-12T12:22:51.730Z,2.20
2019-02-12T12:25:22.709Z,1.83
2019-02-12T12:27:53.602Z,1.50
2019-02-12T12:30:24.533Z,1.80
2019-02-12T12:32:56.522Z,1.87
2019-02-12T12:35:27.513Z,1.40
2019-02-12T12:37:58.493Z,1.53
2019-02-12T12:40:29.433Z,1.80
2019-02-12T12:43:00.312Z,1.50
2019-02-12T12:45:31.280Z,2.37
2019-02-12T12:48:02.169Z,1.63
2019-02-12T12:50:33.134Z,1.50
2019-02-12T12:53:04.147Z,1.90
2019-02-12T12:55:35.073Z,1.80
2019-02-12T12:58:06.149Z,2.37
2019-02-12T13:00:37.192Z,1.70
2019-02-12T13:03:08.133Z,1.23
2019-02-12T13:05:39.401Z,1.60
2019-02-12T13:08:10.325Z,1.03
2019-02-12T13:10:41.244Z,1.20
2019-02-12T13:13:12.184Z,1.20
2019-02-12T13:15:43.106Z,1.30
2019-02-12T13:18:14.030Z,1.50
2019-02-12T13:20:44.952Z,1.57
2019-02-12T13:23:16.000Z,2.50
2019-02-12T13:25:46.950Z,1.80
2019-02-12T13:28:17.864Z,1.93
2019-02-12T13:30:49.121Z,1.37
2019-02-12T13:33:20.075Z,1.60
2019-02-12T13:35:51.044Z,1.50
2019-02-12T13:38:22.308Z,1.37
2019-02-12T13:40:53.226Z,1.70
2019-02-12T13:43:24.139Z,2.17
2019-02-12T13:45:55.442Z,1.47
2019-02-12T13:48:28.192Z,1.30
2019-02-12T13:50:59.318Z,4.30
2019-02-12T13:53:30.548Z,1.77
2019-02-12T13:56:01.422Z,1.40
2019-02-12T13:58:32.587Z,1.50
2019-02-12T14:01:03.835Z,1.57
2019-02-12T14:03:35.323Z,1.63
2019-02-12T14:06:06.271Z,6.10
2019-02-12T14:08:37.287Z,3.20
2019-02-12T14:11:08.529Z,6.70
2019-02-12T14:13:39.768Z,2.00
2019-02-12T14:16:10.779Z,1.97
2019-02-12T14:18:41.746Z,2.17
2019-02-12T14:21:12.714Z,1.97
2019-02-12T14:23:43.647Z,1.60
2019-02-12T14:26:14.628Z,1.77
2019-02-12T14:28:45.549Z,2.33
2019-02-12T14:31:16.507Z,1.60
2019-02-12T14:33:47.743Z,2.20
2019-02-12T14:36:18.699Z,2.90
2019-02-12T14:38:50.353Z,2.27
2019-02-12T14:41:21.538Z,2.43
2019-02-12T14:43:52.456Z,2.33
2019-02-12T14:46:23.386Z,1.50
2019-02-12T14:48:54.282Z,2.20
2019-02-12T14:51:25.164Z,1.83
2019-02-12T14:53:56.783Z,1.80
2019-02-12T14:56:28.600Z,2.03
2019-02-12T14:58:59.511Z,2.03
2019-02-12T15:01:30.716Z,1.93
2019-02-12T15:04:01.609Z,2.47
2019-02-12T15:06:32.559Z,2.67
2019-02-12T15:09:04.522Z,2.40
2019-02-12T15:11:35.412Z,2.70
2019-02-12T15:14:06.388Z,3.10
2019-02-12T15:16:37.352Z,2.40
2019-02-12T15:19:08.273Z,2.87
2019-02-12T15:21:39.225Z,2.07
2019-02-12T15:24:10.146Z,2.10
2019-02-12T15:26:41.079Z,2.60
2019-02-12T15:29:12.038Z,3.07
2019-02-12T15:31:43.237Z,3.07
2019-02-12T15:34:14.128Z,3.60
2019-02-12T15:36:45.106Z,3.13
2019-02-12T15:39:16.299Z,2.60
2019-02-12T15:41:47.264Z,3.30
2019-02-12T15:44:18.260Z,3.33
2019-02-12T15:46:49.181Z,3.90
2019-02-12T15:49:20.090Z,2.53
2019-02-12T15:51:51.105Z,3.50
2019-02-12T15:54:22.370Z,4.47
2019-02-12T15:56:53.307Z,4.70
2019-02-12T15:59:24.258Z,4.70
2019-02-12T16:01:55.172Z,4.70
2019-02-12T16:04:26.125Z,3.30
2019-02-12T16:06:57.859Z,2.30
2019-02-12T16:09:31.250Z,2.60
2019-02-12T16:12:04.060Z,1.93
2019-02-12T16:14:35.702Z,2.63
2019-02-12T16:17:06.654Z,2.30
2019-02-12T16:19:37.545Z,2.53
2019-02-12T16:22:08.589Z,2.83
2019-02-12T16:24:39.534Z,2.10
2019-02-12T16:27:10.446Z,2.53
2019-02-12T16:29:41.444Z,2.23
2019-02-12T16:32:12.409Z,3.00
2019-02-12T16:34:43.390Z,2.37
2019-02-12T16:37:14.634Z,3.10
2019-02-12T16:39:46.074Z,3.73
2019-02-12T16:42:17.365Z,3.00
2019-02-12T16:44:48.290Z,2.87
2019-02-12T16:47:19.317Z,3.30
2019-02-12T16:49:50.331Z,3.60
2019-02-12T16:52:21.309Z,3.30
2019-02-12T16:54:52.323Z,3.63
2019-02-12T16:57:23.247Z,5.33
2019-02-12T16:59:54.129Z,4.97
2019-02-12T17:02:25.082Z,4.47
2019-02-12T17:04:57.547Z,4.23
2019-02-12T17:07:28.503Z,4.87
2019-02-12T17:09:59.631Z,4.00
2019-02-12T17:12:30.603Z,3.53
2019-02-12T17:15:01.529Z,4.40
2019-02-12T17:17:32.833Z,3.83
2019-02-12T17:20:04.050Z,4.63
2019-02-12T17:22:34.972Z,3.90
2019-02-12T17:25:07.171Z,3.93
2019-02-12T17:27:41.552Z,5.10
2019-02-12T17:30:13.891Z,4.20
2019-02-12T17:32:44.916Z,4.10
2019-02-12T17:35:16.130Z,5.17
2019-02-12T17:37:47.500Z,3.70
2019-02-12T17:40:18.488Z,3.30
2019-02-12T17:42:49.414Z,4.37
2019-02-12T17:45:20.453Z,4.77
2019-02-12T17:47:51.810Z,4.40
2019-02-12T17:50:22.734Z,3.67
2019-02-12T17:52:53.814Z,3.83
2019-02-12T17:55:25.029Z,4.73
2019-02-12T17:57:56.257Z,4.70
2019-02-12T18:00:30.233Z,4.73
2019-02-12T18:03:02.810Z,3.97
2019-02-12T18:05:33.770Z,4.97
2019-02-12T18:08:04.695Z,6.60
2019-02-12T18:10:35.610Z,6.47
2019-02-12T18:13:06.612Z,5.20
2019-02-12T18:15:38.160Z,4.00
2019-02-12T18:18:09.120Z,4.27
2019-02-12T18:20:40.425Z,4.80
2019-02-12T18:23:13.352Z,5.00
2019-02-12T18:25:44.606Z,5.87
2019-02-12T18:28:15.866Z,5.37
2019-02-12T18:30:46.756Z,6.10
2019-02-12T18:33:17.657Z,5.77
2019-02-12T18:35:48.650Z,5.87
2019-02-12T18:38:20.011Z,7.80
2019-02-12T18:40:52.991Z,8.90
2019-02-12T18:43:24.306Z,8.40
2019-02-12T18:45:55.266Z,7.83
2019-02-12T18:48:27.994Z,8.93
2019-02-12T18:50:58.963Z,9.90
2019-02-12T18:53:29.885Z,9.17
2019-02-12T18:56:01.125Z,10.33
2019-02-12T18:58:32.070Z,10.60
2019-02-12T19:01:03.946Z,8.90
2019-02-12T19:03:35.220Z,9.20
2019-02-12T19:06:07.005Z,10.23
2019-02-12T19:08:37.956Z,9.37
2019-02-12T19:11:09.295Z,10.23
2019-02-12T19:13:44.414Z,10.30
2019-02-12T19:16:18.152Z,11.60
2019-02-12T19:18:51.707Z,10.70
2019-02-12T19:21:29.992Z,12.40
2019-02-12T19:24:01.183Z,11.90
2019-02-12T19:26:32.430Z,13.17
2019-02-12T19:29:04.912Z,12.87
2019-02-12T19:31:35.871Z,13.90
2019-02-12T19:34:08.185Z,13.73
2019-02-12T19:36:40.304Z,13.47
2019-02-12T19:39:13.185Z,13.07
2019-02-12T19:41:44.467Z,14.00
2019-02-12T19:44:17.931Z,14.90
2019-02-12T19:46:49.142Z,14.73
2019-02-12T19:49:20.150Z,14.47
2019-02-12T19:51:51.276Z,14.53
2019-02-12T19:54:23.455Z,15.77
2019-02-12T19:56:58.425Z,17.50
2019-02-12T19:59:28.829Z,16.10
2019-02-12T20:01:59.782Z,16.47
2019-02-12T20:04:31.035Z,18.40
2019-02-12T20:07:02.962Z,18.13
2019-02-12T20:09:35.297Z,18.93
2019-02-12T20:12:06.408Z,17.87
2019-02-12T20:14:37.996Z,18.53
2019-02-12T20:17:09.728Z,18.77
2019-02-12T20:19:42.252Z,19.47
2019-02-12T20:22:14.594Z,19.57
2019-02-12T20:24:46.091Z,20.60
2019-02-12T20:27:17.942Z,20.20
2019-02-12T20:29:49.360Z,19.50
2019-02-12T20:32:21.139Z,18.50
2019-02-12T20:34:58.207Z,18.13
2019-02-12T20:37:29.514Z,18.93
2019-02-12T20:40:00.485Z,18.63
2019-02-12T20:42:31.396Z,18.70
2019-02-12T20:45:02.627Z,18.90
2019-02-12T20:47:33.583Z,18.43
2019-02-12T20:50:04.632Z,18.73
2019-02-12T20:52:35.769Z,19.70
2019-02-12T20:55:07.337Z,18.83
2019-02-12T20:57:40.906Z,19.40
2019-02-12T21:00:16.664Z,19.10
2019-02-12T21:02:47.711Z,19.70
2019-02-12T21:05:18.660Z,18.80
2019-02-12T21:07:58.006Z,19.37
2019-02-12T21:10:28.951Z,18.23
2019-02-12T21:13:00.057Z,19.40
2019-02-12T21:15:31.164Z,19.13
2019-02-12T21:18:02.379Z,19.97
2019-02-12T21:20:33.618Z,20.57
2019-02-12T21:23:05.956Z,20.33
2019-02-12T21:25:37.178Z,20.37
2019-02-12T21:28:08.449Z,20.17
2019-02-12T21:30:40.981Z,19.97
2019-02-12T21:33:11.959Z,21.70
2019-02-12T21:35:42.909Z,20.87
2019-02-12T21:38:17.403Z,20.90
2019-02-12T21:40:48.359Z,20.80
2019-02-12T21:43:20.268Z,20.97
2019-02-12T21:45:51.573Z,21.63
2019-02-12T21:48:22.822Z,20.97
2019-02-12T21:50:53.786Z,20.57
2019-02-12T21:53:24.704Z,22.07
2019-02-12T21:55:55.907Z,21.30
2019-02-12T21:58:26.833Z,19.60
2019-02-12T22:00:57.723Z,21.30
2019-02-12T22:03:28.664Z,20.97
2019-02-12T22:05:59.566Z,21.13
2019-02-12T22:08:30.779Z,21.63
2019-02-12T22:11:01.771Z,22.47
2019-02-12T22:13:32.816Z,20.37
2019-02-12T22:16:03.815Z,22.40
2019-02-12T22:18:34.870Z,21.47
2019-02-12T22:21:05.941Z,23.20
2019-02-12T22:23:36.874Z,22.03
2019-02-12T22:26:07.762Z,24.80
2019-02-12T22:28:38.720Z,21.50
2019-02-12T22:31:09.636Z,22.87
2019-02-12T22:33:40.574Z,23.73
2019-02-12T22:36:11.495Z,22.33
2019-02-12T22:38:42.410Z,21.63
2019-02-12T22:41:13.348Z,22.57
2019-02-12T22:43:44.575Z,23.50
2019-02-12T22:46:15.479Z,23.60
2019-02-12T22:48:46.502Z,22.60
2019-02-12T22:51:17.404Z,22.30
2019-02-12T22:53:48.373Z,23.33
2019-02-12T22:56:19.278Z,24.07
2019-02-12T22:58:50.319Z,24.03
2019-02-12T23:01:31.463Z,24.13
2019-02-12T23:04:02.440Z,23.27
2019-02-12T23:06:33.399Z,24.73
2019-02-12T23:09:06.509Z,24.23
2019-02-12T23:11:37.811Z,24.97
2019-02-12T23:14:08.740Z,23.43
2019-02-12T23:16:39.671Z,24.97
2019-02-12T23:19:10.740Z,24.40
2019-02-12T23:21:41.652Z,23.83
2019-02-12T23:24:12.612Z,22.67
2019-02-12T23:26:43.862Z,23.80
2019-02-12T23:29:15.123Z,23.23
2019-02-12T23:31:46.139Z,23.80
2019-02-12T23:34:17.338Z,23.10
2019-02-12T23:36:48.282Z,22.60
2019-02-12T23:39:19.252Z,22.97
2019-02-12T23:41:50.457Z,23.27
2019-02-12T23:44:21.662Z,22.53
2019-02-12T23:46:52.546Z,23.30
2019-02-12T23:49:23.514Z,25.20
2019-02-12T23:51:54.494Z,24.03
2019-02-12T23:54:25.498Z,23.37
2019-02-12T23:56:56.441Z,21.90
2019-02-12T23:59:27.634Z,21.03
